Time;durP1;ratioP1;P1;durP2;ratioP2;P2;SDS_P1;SDS_P2;PMS_P1;PMS_P2;Temp;Humidity;BMP_temperature;BMP_pressure;BME280_temperature;BME280_humidity;BME280_pressure;Samples;Min_cycle;Max_cycle;Signal;HPM_P1;HPM_P2
2021/07/28 00:02:06;;;;;;;7.97;4.13;;;;;;;;;;5031095;28;20036;-70
2021/07/28 00:04:35;;;;;;;6.78;4.20;;;;;;;;;;5031092;28;20513;-69
2021/07/28 00:07:01;;;;;;;8.73;4.45;;;;;;;;;;5030850;28;20534;-70
2021/07/28 00:09:27;;;;;;;10.75;4.38;;;;;;;;;;5030938;28;20033;-70
2021/07/28 00:11:53;;;;;;;10.48;4.18;;;;;;;;;;5030959;28;20092;-70
2021/07/28 00:14:19;;;;;;;7.97;3.80;;;;;;;;;;5030929;28;20443;-69
2021/07/28 00:16:46;;;;;;;4.95;4.03;;;;;;;;;;5029914;28;20021;-70
2021/07/28 00:19:22;;;;;;;7.10;4.22;;;;;;;;;;5030432;28;20120;-71
2021/07/28 00:24:36;;;;;;;6.47;3.70;;;;;;;;;;5030792;28;20609;-70
2021/07/28 00:27:02;;;;;;;7.82;4.20;;;;;;;;;;5030524;28;20056;-69
2021/07/28 00:29:29;;;;;;;7.60;3.90;;;;;;;;;;5030753;28;20435;-70
2021/07/28 00:31:55;;;;;;;8.82;4.45;;;;;;;;;;5030628;28;20029;-70
2021/07/28 00:34:22;;;;;;;8.23;3.97;;;;;;;;;;5030391;28;20400;-71
2021/07/28 00:36:48;;;;;;;9.30;3.65;;;;;;;;;;5029723;28;20063;-70
2021/07/28 00:39:14;;;;;;;8.90;4.20;;;;;;;;;;5030433;28;20451;-70
2021/07/28 00:41:41;;;;;;;5.63;3.88;;;;;;;;;;5030311;28;20507;-70
2021/07/28 00:44:08;;;;;;;10.23;4.30;;;;;;;;;;5030251;28;20036;-69
2021/07/28 00:46:34;;;;;;;6.53;4.00;;;;;;;;;;5030128;28;20048;-70
2021/07/28 00:49:00;;;;;;;7.95;3.78;;;;;;;;;;5030736;28;20049;-69
2021/07/28 00:51:26;;;;;;;6.60;4.80;;;;;;;;;;5032109;28;20484;-70
2021/07/28 00:53:52;;;;;;;8.50;4.32;;;;;;;;;;5033195;28;20036;-69
2021/07/28 00:56:19;;;;;;;6.47;3.92;;;;;;;;;;5033370;28;20025;-69
2021/07/28 00:58:45;;;;;;;8.25;4.35;;;;;;;;;;5029117;28;20029;-69
2021/07/28 01:01:11;;;;;;;6.88;4.00;;;;;;;;;;5013430;28;20421;-68
2021/07/28 01:03:42;;;;;;;7.90;4.20;;;;;;;;;;5013654;28;20092;-68
2021/07/28 01:06:08;;;;;;;6.93;4.47;;;;;;;;;;5013353;28;20018;-68
2021/07/28 01:08:35;;;;;;;6.40;4.07;;;;;;;;;;5013310;28;20018;-68
2021/07/28 01:11:02;;;;;;;9.13;4.32;;;;;;;;;;5013217;28;20076;-69
2021/07/28 01:13:31;;;;;;;8.88;4.05;;;;;;;;;;5013081;28;20046;-69
2021/07/28 01:16:05;;;;;;;9.15;4.03;;;;;;;;;;5013526;28;20251;-69
2021/07/28 01:18:31;;;;;;;7.70;3.72;;;;;;;;;;5013310;28;20036;-70
2021/07/28 01:20:57;;;;;;;7.93;3.83;;;;;;;;;;5012970;28;20058;-69
2021/07/28 01:23:27;;;;;;;6.13;3.55;;;;;;;;;;5019513;28;20373;-70
2021/07/28 01:25:54;;;;;;;8.52;4.45;;;;;;;;;;5033050;28;20057;-70
2021/07/28 01:28:21;;;;;;;7.15;4.47;;;;;;;;;;5032136;28;20029;-69
2021/07/28 01:30:58;;;;;;;5.55;3.47;;;;;;;;;;5032464;28;20026;-69
2021/07/28 01:33:24;;;;;;;10.43;4.70;;;;;;;;;;5033114;28;20036;-69
2021/07/28 01:35:50;;;;;;;10.02;4.07;;;;;;;;;;5032599;28;20055;-69
2021/07/28 01:38:22;;;;;;;7.15;4.32;;;;;;;;;;5032698;28;20037;-69
2021/07/28 01:40:48;;;;;;;7.00;4.38;;;;;;;;;;5032446;28;20486;-69
2021/07/28 01:43:15;;;;;;;8.85;4.30;;;;;;;;;;5032381;28;20078;-69
2021/07/28 01:45:41;;;;;;;13.13;6.05;;;;;;;;;;5032231;28;20042;-69
2021/07/28 01:48:08;;;;;;;10.80;7.15;;;;;;;;;;5032534;28;20384;-70
2021/07/28 01:50:34;;;;;;;12.43;7.53;;;;;;;;;;5032549;28;20018;-71
2021/07/28 01:53:04;;;;;;;12.80;7.47;;;;;;;;;;5032257;28;20109;-70
2021/07/28 01:55:30;;;;;;;12.18;8.27;;;;;;;;;;5032334;28;20554;-69
2021/07/28 01:57:57;;;;;;;12.43;7.70;;;;;;;;;;5032437;28;20033;-69
2021/07/28 02:00:23;;;;;;;11.43;8.27;;;;;;;;;;5032619;28;20054;-71
2021/07/28 02:02:49;;;;;;;12.82;8.02;;;;;;;;;;5014315;28;20026;-68
2021/07/28 02:05:15;;;;;;;11.93;7.40;;;;;;;;;;5032196;28;20092;-70
2021/07/28 02:07:41;;;;;;;13.77;7.47;;;;;;;;;;5032323;28;20492;-69
2021/07/28 02:10:08;;;;;;;14.38;7.88;;;;;;;;;;5014699;28;20022;-70
2021/07/28 02:12:34;;;;;;;9.73;6.68;;;;;;;;;;5031863;28;20033;-69
2021/07/28 02:15:00;;;;;;;14.18;7.47;;;;;;;;;;5032366;28;20022;-70
2021/07/28 02:17:26;;;;;;;10.50;7.20;;;;;;;;;;5014367;28;20392;-69
2021/07/28 02:19:52;;;;;;;12.90;6.97;;;;;;;;;;5032115;28;20147;-69
2021/07/28 02:22:18;;;;;;;11.13;6.85;;;;;;;;;;5014362;28;20075;-69
2021/07/28 02:24:44;;;;;;;10.75;6.25;;;;;;;;;;5031947;28;20103;-69
2021/07/28 02:27:10;;;;;;;11.48;4.90;;;;;;;;;;5032087;28;20061;-69
2021/07/28 02:29:37;;;;;;;8.38;4.90;;;;;;;;;;5014366;28;20409;-69
2021/07/28 02:32:04;;;;;;;6.32;4.47;;;;;;;;;;5031963;28;20108;-69
2021/07/28 02:34:33;;;;;;;5.75;4.20;;;;;;;;;;5014405;28;20506;-69
2021/07/28 02:36:59;;;;;;;6.30;4.13;;;;;;;;;;5031902;28;20025;-69
2021/07/28 02:39:26;;;;;;;8.43;4.03;;;;;;;;;;5032012;28;20022;-70
2021/07/28 02:41:52;;;;;;;8.10;3.70;;;;;;;;;;5034554;28;20149;-70
2021/07/28 02:44:18;;;;;;;6.93;3.85;;;;;;;;;;5035675;28;20052;-69
2021/07/28 02:46:44;;;;;;;8.25;3.90;;;;;;;;;;5035615;28;20112;-70
2021/07/28 02:49:10;;;;;;;5.47;3.85;;;;;;;;;;5035693;28;20468;-69
2021/07/28 02:51:36;;;;;;;7.50;3.70;;;;;;;;;;5035648;28;20097;-70
2021/07/28 02:54:02;;;;;;;6.50;3.80;;;;;;;;;;5035433;28;20026;-69
2021/07/28 02:56:28;;;;;;;4.70;3.35;;;;;;;;;;5035137;28;20495;-70
2021/07/28 02:58:55;;;;;;;5.05;3.70;;;;;;;;;;5035369;28;20057;-69
2021/07/28 03:01:21;;;;;;;6.03;3.53;;;;;;;;;;5035401;28;20033;-68
2021/07/28 03:03:47;;;;;;;8.32;3.75;;;;;;;;;;5035111;28;20037;-69
2021/07/28 03:06:13;;;;;;;7.22;3.80;;;;;;;;;;5035258;28;20021;-69
2021/07/28 03:08:39;;;;;;;6.43;3.65;;;;;;;;;;5035256;28;20029;-69
2021/07/28 03:11:05;;;;;;;6.95;3.42;;;;;;;;;;5035148;28;20029;-69
2021/07/28 03:13:31;;;;;;;6.63;4.20;;;;;;;;;;5034971;28;20029;-70
2021/07/28 03:16:04;;;;;;;5.22;3.95;;;;;;;;;;5035082;28;20041;-70
2021/07/28 03:18:30;;;;;;;7.00;4.53;;;;;;;;;;5035098;28;20391;-69
2021/07/28 03:20:56;;;;;;;7.22;4.18;;;;;;;;;;5035021;28;20021;-69
2021/07/28 03:23:22;;;;;;;6.05;4.10;;;;;;;;;;5034262;28;20033;-70
2021/07/28 03:25:48;;;;;;;5.72;4.13;;;;;;;;;;5034835;28;20591;-69
2021/07/28 03:28:14;;;;;;;7.43;3.90;;;;;;;;;;5034955;28;20029;-69
2021/07/28 03:30:40;;;;;;;7.28;3.92;;;;;;;;;;5034888;28;20017;-69
2021/07/28 03:33:06;;;;;;;6.03;3.92;;;;;;;;;;5034627;28;20048;-69
2021/07/28 03:35:33;;;;;;;6.90;4.57;;;;;;;;;;5034856;28;20036;-69
2021/07/28 03:37:59;;;;;;;10.27;4.15;;;;;;;;;;5034464;28;20030;-69
2021/07/28 03:40:25;;;;;;;6.50;4.15;;;;;;;;;;5034682;28;20559;-69
2021/07/28 03:42:52;;;;;;;5.85;4.22;;;;;;;;;;5034425;28;20449;-69
2021/07/28 03:45:18;;;;;;;6.78;4.18;;;;;;;;;;5034661;28;20067;-69
2021/07/28 03:47:44;;;;;;;5.18;3.95;;;;;;;;;;5034523;28;20041;-69
2021/07/28 03:50:10;;;;;;;7.78;5.00;;;;;;;;;;5034482;28;20484;-69
2021/07/28 03:52:36;;;;;;;6.40;3.70;;;;;;;;;;5034192;28;20025;-69
2021/07/28 03:55:03;;;;;;;10.05;4.07;;;;;;;;;;5034302;28;20370;-69
2021/07/28 03:57:29;;;;;;;6.32;4.00;;;;;;;;;;5034413;28;20036;-69
2021/07/28 03:59:55;;;;;;;7.93;4.03;;;;;;;;;;5034363;28;20076;-70
2021/07/28 04:02:21;;;;;;;7.57;4.10;;;;;;;;;;5034317;28;20053;-69
2021/07/28 04:04:47;;;;;;;5.78;3.80;;;;;;;;;;5033993;28;20029;-69
2021/07/28 04:07:13;;;;;;;5.00;3.65;;;;;;;;;;5034122;28;20037;-69
2021/07/28 04:09:39;;;;;;;6.07;3.70;;;;;;;;;;5034016;28;20028;-70
2021/07/28 04:12:05;;;;;;;9.93;3.75;;;;;;;;;;5034346;28;20100;-69
2021/07/28 04:14:32;;;;;;;10.45;3.70;;;;;;;;;;5033806;28;20079;-69
2021/07/28 04:16:58;;;;;;;5.53;3.42;;;;;;;;;;5034020;28;20037;-70
2021/07/28 04:19:24;;;;;;;5.72;3.97;;;;;;;;;;5033936;28;20361;-70
2021/07/28 04:21:50;;;;;;;6.15;3.13;;;;;;;;;;5033867;28;20029;-69
2021/07/28 04:24:16;;;;;;;6.53;3.35;;;;;;;;;;5033657;28;20026;-69
2021/07/28 04:26:42;;;;;;;7.10;3.33;;;;;;;;;;5033690;28;20484;-69
2021/07/28 04:29:08;;;;;;;6.18;4.25;;;;;;;;;;5033790;28;20029;-69
2021/07/28 04:31:34;;;;;;;6.30;3.20;;;;;;;;;;5034067;28;20380;-69
2021/07/28 04:34:00;;;;;;;4.75;3.50;;;;;;;;;;5033673;28;20055;-69
2021/07/28 04:36:26;;;;;;;10.35;3.15;;;;;;;;;;5033479;28;20025;-69
2021/07/28 04:38:52;;;;;;;5.30;3.53;;;;;;;;;;5033641;28;20034;-69
2021/07/28 04:41:18;;;;;;;5.10;3.20;;;;;;;;;;5033523;28;20018;-69
2021/07/28 04:43:44;;;;;;;4.78;3.63;;;;;;;;;;5033277;28;20056;-69
2021/07/28 04:46:10;;;;;;;4.68;3.70;;;;;;;;;;5033233;28;20041;-69
2021/07/28 04:48:37;;;;;;;6.32;3.75;;;;;;;;;;5033484;28;20490;-69
2021/07/28 04:51:03;;;;;;;7.43;3.83;;;;;;;;;;5032999;28;20400;-69
2021/07/28 04:53:29;;;;;;;5.07;3.20;;;;;;;;;;5033363;28;20021;-69
2021/07/28 04:55:59;;;;;;;5.60;3.45;;;;;;;;;;5033075;28;20043;-70
2021/07/28 04:58:25;;;;;;;7.80;3.40;;;;;;;;;;5033324;28;20025;-69
2021/07/28 05:00:52;;;;;;;8.93;3.60;;;;;;;;;;5033297;28;20541;-70
2021/07/28 05:03:18;;;;;;;6.28;3.40;;;;;;;;;;5014972;28;20068;-70
2021/07/28 05:05:45;;;;;;;5.70;3.28;;;;;;;;;;5033078;28;20121;-69
2021/07/28 05:08:11;;;;;;;6.43;4.35;;;;;;;;;;5033052;28;20634;-69
2021/07/28 05:10:37;;;;;;;4.55;3.25;;;;;;;;;;5032900;28;20032;-70
2021/07/28 05:13:03;;;;;;;5.85;3.42;;;;;;;;;;5033855;28;20060;-70
2021/07/28 05:15:29;;;;;;;5.85;3.30;;;;;;;;;;5048642;28;20025;-70
2021/07/28 05:17:56;;;;;;;6.20;3.47;;;;;;;;;;5032882;28;20017;-69
2021/07/28 05:20:22;;;;;;;8.10;3.85;;;;;;;;;;5032246;28;20408;-69
2021/07/28 05:22:49;;;;;;;7.30;3.63;;;;;;;;;;5032139;28;20053;-69
2021/07/28 05:25:15;;;;;;;9.73;4.95;;;;;;;;;;5032181;28;20033;-71
2021/07/28 05:27:42;;;;;;;6.35;3.83;;;;;;;;;;5032411;28;20033;-72
2021/07/28 05:30:08;;;;;;;8.00;3.72;;;;;;;;;;5032254;28;20049;-72
2021/07/28 05:32:37;;;;;;;8.85;3.63;;;;;;;;;;5032750;28;20101;-71
2021/07/28 05:35:03;;;;;;;13.65;3.83;;;;;;;;;;5019187;28;20053;-72
2021/07/28 05:37:30;;;;;;;5.30;3.10;;;;;;;;;;5032536;28;20029;-73
2021/07/28 05:39:56;;;;;;;8.77;3.90;;;;;;;;;;5032501;28;20025;-75
2021/07/28 05:42:22;;;;;;;7.30;3.58;;;;;;;;;;5032370;28;20052;-74
2021/07/28 05:44:48;;;;;;;4.72;3.38;;;;;;;;;;5032754;28;20064;-71
2021/07/28 05:47:15;;;;;;;8.75;4.22;;;;;;;;;;5032915;28;20414;-68
2021/07/28 05:49:41;;;;;;;6.10;3.42;;;;;;;;;;5032658;28;20021;-69
2021/07/28 05:52:07;;;;;;;7.05;3.83;;;;;;;;;;5032831;28;20025;-68
2021/07/28 05:54:33;;;;;;;8.88;3.90;;;;;;;;;;5032152;28;20025;-68
2021/07/28 05:56:59;;;;;;;4.47;3.67;;;;;;;;;;5032051;28;20041;-68
2021/07/28 05:59:27;;;;;;;6.38;4.35;;;;;;;;;;5031278;28;20061;-69
2021/07/28 06:01:53;;;;;;;6.32;3.50;;;;;;;;;;5032391;28;20033;-68
2021/07/28 06:04:19;;;;;;;7.95;3.70;;;;;;;;;;5011517;28;20034;-68
2021/07/28 06:06:45;;;;;;;5.15;3.65;;;;;;;;;;5022086;28;20028;-67
2021/07/28 06:09:11;;;;;;;4.85;3.72;;;;;;;;;;5032654;28;20094;-68
2021/07/28 06:11:37;;;;;;;5.47;3.65;;;;;;;;;;5030453;28;20035;-69
2021/07/28 06:14:03;;;;;;;5.93;3.72;;;;;;;;;;5031008;28;20021;-69
2021/07/28 06:16:32;;;;;;;5.63;3.55;;;;;;;;;;5034170;28;20052;-69
2021/07/28 06:18:58;;;;;;;5.30;2.88;;;;;;;;;;5034065;28;20022;-69
2021/07/28 06:21:25;;;;;;;4.63;3.10;;;;;;;;;;5034419;28;20021;-69
2021/07/28 06:23:51;;;;;;;3.50;2.70;;;;;;;;;;5034470;28;20128;-68
2021/07/28 06:26:17;;;;;;;4.82;2.78;;;;;;;;;;5034502;28;20109;-69
2021/07/28 06:28:43;;;;;;;3.92;3.10;;;;;;;;;;5036235;28;20076;-69
2021/07/28 06:31:09;;;;;;;3.60;2.78;;;;;;;;;;5035899;28;20022;-69
2021/07/28 06:33:35;;;;;;;5.82;2.97;;;;;;;;;;5035861;28;20044;-71
2021/07/28 06:36:01;;;;;;;5.22;2.80;;;;;;;;;;5035871;28;20051;-70
2021/07/28 06:38:27;;;;;;;4.90;2.70;;;;;;;;;;5035048;28;20107;-70
2021/07/28 06:41:00;;;;;;;5.85;2.83;;;;;;;;;;5035437;28;20413;-69
2021/07/28 06:43:26;;;;;;;4.60;2.83;;;;;;;;;;5035190;28;20695;-68
2021/07/28 06:45:58;;;;;;;4.00;2.60;;;;;;;;;;5014558;28;20068;-68
2021/07/28 06:48:25;;;;;;;3.63;2.50;;;;;;;;;;5015832;28;20446;-68
2021/07/28 06:50:51;;;;;;;6.10;2.80;;;;;;;;;;5022196;28;20022;-69
2021/07/28 06:53:17;;;;;;;3.63;2.60;;;;;;;;;;5035371;28;20037;-70
2021/07/28 06:55:43;;;;;;;4.35;2.88;;;;;;;;;;5034458;28;20579;-68
2021/07/28 06:58:10;;;;;;;4.72;2.50;;;;;;;;;;5034257;28;20036;-71
2021/07/28 07:00:36;;;;;;;5.47;2.60;;;;;;;;;;5034851;28;20037;-69
2021/07/28 07:03:02;;;;;;;3.30;2.63;;;;;;;;;;5035651;28;20451;-70
2021/07/28 07:05:28;;;;;;;3.42;2.60;;;;;;;;;;5035952;28;20024;-69
2021/07/28 07:07:54;;;;;;;3.03;2.10;;;;;;;;;;5035340;28;20079;-69
2021/07/28 07:10:21;;;;;;;2.60;2.17;;;;;;;;;;5025068;28;20034;-69
2021/07/28 07:12:47;;;;;;;3.92;2.53;;;;;;;;;;5026883;28;20034;-68
2021/07/28 07:15:13;;;;;;;2.63;2.08;;;;;;;;;;5017164;28;20106;-68
2021/07/28 07:17:39;;;;;;;2.40;1.92;;;;;;;;;;5029982;28;20380;-70
2021/07/28 07:20:06;;;;;;;2.97;2.13;;;;;;;;;;5031465;28;20029;-69
2021/07/28 07:22:32;;;;;;;2.55;2.20;;;;;;;;;;5026260;28;20055;-68
2021/07/28 07:24:58;;;;;;;2.72;2.20;;;;;;;;;;5020912;28;20034;-70
2021/07/28 07:27:27;;;;;;;2.35;2.13;;;;;;;;;;5019572;28;20486;-70
2021/07/28 07:29:55;;;;;;;2.25;2.00;;;;;;;;;;5026898;28;20032;-67
2021/07/28 07:32:22;;;;;;;3.13;2.20;;;;;;;;;;5030363;28;20057;-68
2021/07/28 07:34:49;;;;;;;3.25;2.30;;;;;;;;;;5025067;28;20029;-69
2021/07/28 07:37:15;;;;;;;3.05;2.05;;;;;;;;;;5021036;28;20025;-67
2021/07/28 07:39:41;;;;;;;3.10;2.10;;;;;;;;;;5027499;28;20061;-68
2021/07/28 07:42:08;;;;;;;3.97;2.20;;;;;;;;;;5030535;28;20134;-68
2021/07/28 07:44:34;;;;;;;3.08;2.35;;;;;;;;;;5020520;28;20034;-66
2021/07/28 07:47:00;;;;;;;3.65;2.35;;;;;;;;;;5018172;28;20140;-68
2021/07/28 07:49:26;;;;;;;3.95;2.20;;;;;;;;;;5026734;28;20018;-67
2021/07/28 07:51:52;;;;;;;3.00;2.17;;;;;;;;;;5021765;28;20080;-68
2021/07/28 07:54:18;;;;;;;2.53;2.20;;;;;;;;;;5006461;28;20396;-68
2021/07/28 07:56:44;;;;;;;2.90;2.00;;;;;;;;;;5020595;28;20100;-69
2021/07/28 07:59:10;;;;;;;2.70;2.17;;;;;;;;;;5025840;28;20034;-68
2021/07/28 08:01:38;;;;;;;5.22;2.03;;;;;;;;;;5024247;28;20856;-67
2021/07/28 08:04:04;;;;;;;2.58;2.25;;;;;;;;;;5014608;28;20060;-70
2021/07/28 08:06:31;;;;;;;2.88;2.25;;;;;;;;;;5018563;28;20153;-69
2021/07/28 08:08:57;;;;;;;4.47;2.10;;;;;;;;;;5012660;28;20036;-67
2021/07/28 08:11:23;;;;;;;3.40;2.45;;;;;;;;;;5019686;28;20061;-68
2021/07/28 08:13:49;;;;;;;2.53;2.10;;;;;;;;;;5026143;28;20032;-68
2021/07/28 08:16:18;;;;;;;3.10;2.10;;;;;;;;;;5021023;28;20033;-67
2021/07/28 08:18:44;;;;;;;4.10;1.95;;;;;;;;;;5020099;28;20560;-69
2021/07/28 08:21:11;;;;;;;3.05;2.25;;;;;;;;;;5021272;28;20037;-67
2021/07/28 08:23:37;;;;;;;2.95;1.92;;;;;;;;;;5024465;28;20488;-71
2021/07/28 08:26:04;;;;;;;3.75;2.10;;;;;;;;;;5015135;28;20042;-68
2021/07/28 08:28:30;;;;;;;2.55;1.90;;;;;;;;;;5023115;28;20036;-69
2021/07/28 08:30:56;;;;;;;2.35;2.13;;;;;;;;;;5015267;28;20489;-68
2021/07/28 08:33:23;;;;;;;2.38;1.83;;;;;;;;;;5026702;28;20047;-67
2021/07/28 08:35:49;;;;;;;4.78;1.95;;;;;;;;;;5019804;28;20057;-69
2021/07/28 08:38:20;;;;;;;2.28;1.85;;;;;;;;;;5017161;28;20164;-68
2021/07/28 08:40:49;;;;;;;4.22;2.25;;;;;;;;;;5019565;28;20029;-65
2021/07/28 08:43:16;;;;;;;3.40;2.33;;;;;;;;;;5022076;28;20036;-67
2021/07/28 08:45:46;;;;;;;4.38;1.80;;;;;;;;;;5020768;28;20110;-67
2021/07/28 08:48:12;;;;;;;4.28;2.00;;;;;;;;;;5019848;28;20062;-67
2021/07/28 08:50:38;;;;;;;2.92;2.03;;;;;;;;;;5011742;28;20026;-68
2021/07/28 08:53:04;;;;;;;3.20;1.70;;;;;;;;;;5020532;28;20040;-69
2021/07/28 08:55:31;;;;;;;2.17;1.98;;;;;;;;;;5014843;28;20485;-67
2021/07/28 08:57:59;;;;;;;4.53;2.08;;;;;;;;;;5020663;28;20033;-68
2021/07/28 09:00:40;;;;;;;4.25;2.75;;;;;;;;;;5081125;27;1443348;-67
2021/07/28 09:03:06;;;;;;;3.05;2.08;;;;;;;;;;5114724;28;20156;-70
2021/07/28 09:05:39;;;;;;;2.25;1.90;;;;;;;;;;5114463;28;20118;-65
2021/07/28 09:08:06;;;;;;;2.53;1.90;;;;;;;;;;5111846;28;20515;-68
2021/07/28 09:10:33;;;;;;;2.42;1.90;;;;;;;;;;5119315;28;20104;-66
2021/07/28 09:12:59;;;;;;;2.53;1.58;;;;;;;;;;5115125;28;20435;-68
2021/07/28 09:15:36;;;;;;;2.10;1.80;;;;;;;;;;5113139;28;20035;-67
2021/07/28 09:18:22;;;;;;;2.83;1.70;;;;;;;;;;5116189;28;20098;-68
2021/07/28 09:20:48;;;;;;;2.25;1.70;;;;;;;;;;5115281;28;20062;-67
2021/07/28 09:23:14;;;;;;;5.15;1.40;;;;;;;;;;5120509;28;20058;-67
2021/07/28 09:25:42;;;;;;;1.48;1.38;;;;;;;;;;5117427;28;20553;-67
2021/07/28 09:28:17;;;;;;;1.50;1.40;;;;;;;;;;5107334;28;20038;-67
2021/07/28 09:30:43;;;;;;;2.50;1.75;;;;;;;;;;5114317;28;20846;-66
2021/07/28 09:33:10;;;;;;;1.60;1.50;;;;;;;;;;5125246;28;20031;-67
2021/07/28 09:35:55;;;;;;;1.98;1.60;;;;;;;;;;5125215;27;20123;-67
2021/07/28 09:38:30;;;;;;;3.80;1.52;;;;;;;;;;5117583;28;20051;-66
2021/07/28 09:41:19;;;;;;;3.15;1.40;;;;;;;;;;5111929;28;20149;-68
2021/07/28 09:43:56;;;;;;;4.70;1.80;;;;;;;;;;5110429;28;20058;-68
2021/07/28 09:46:29;;;;;;;5.07;2.20;;;;;;;;;;5125741;27;20054;-67
2021/07/28 09:48:56;;;;;;;1.45;1.30;;;;;;;;;;5125081;28;20027;-69
2021/07/28 09:51:26;;;;;;;2.05;1.70;;;;;;;;;;5112229;28;20147;-66
2021/07/28 09:53:53;;;;;;;3.15;1.60;;;;;;;;;;5121909;28;20460;-67
2021/07/28 09:56:28;;;;;;;2.88;1.80;;;;;;;;;;5113894;28;20031;-66
2021/07/28 09:58:55;;;;;;;3.50;1.65;;;;;;;;;;5122194;28;20074;-66
2021/07/28 10:01:21;;;;;;;1.85;1.70;;;;;;;;;;5124093;28;20055;-66
2021/07/28 10:03:48;;;;;;;3.30;1.58;;;;;;;;;;5123067;28;20047;-66
2021/07/28 10:06:15;;;;;;;2.67;1.60;;;;;;;;;;5112713;28;20024;-66
2021/07/28 10:08:41;;;;;;;3.78;1.80;;;;;;;;;;5118716;28;20027;-66
2021/07/28 10:11:13;;;;;;;1.83;1.60;;;;;;;;;;5099786;28;20043;-67
2021/07/28 10:13:39;;;;;;;1.70;1.50;;;;;;;;;;5099244;28;20081;-67
2021/07/28 10:16:05;;;;;;;3.55;2.03;;;;;;;;;;5101152;28;20028;-65
2021/07/28 10:18:31;;;;;;;2.17;1.90;;;;;;;;;;5091318;28;20063;-66
2021/07/28 10:20:58;;;;;;;2.38;1.95;;;;;;;;;;5099391;28;20428;-67
2021/07/28 10:23:24;;;;;;;2.58;1.60;;;;;;;;;;5102193;28;20130;-65
2021/07/28 10:25:51;;;;;;;2.72;1.80;;;;;;;;;;5109861;28;20028;-66
2021/07/28 10:28:17;;;;;;;5.43;2.65;;;;;;;;;;5093482;28;20047;-67
2021/07/28 10:30:45;;;;;;;1.85;1.65;;;;;;;;;;5096870;28;20023;-65
2021/07/28 10:33:27;;;;;;;4.07;2.05;;;;;;;;;;5110992;28;20020;-66
2021/07/28 10:35:53;;;;;;;1.60;1.50;;;;;;;;;;5105679;28;20024;-65
2021/07/28 10:38:21;;;;;;;1.95;1.85;;;;;;;;;;5103199;28;20739;-65
2021/07/28 10:40:59;;;;;;;4.25;2.13;;;;;;;;;;5097013;28;20028;-67
2021/07/28 10:43:26;;;;;;;3.75;2.65;;;;;;;;;;5098003;28;20024;-65
2021/07/28 10:45:54;;;;;;;7.15;3.67;;;;;;;;;;5102129;28;20382;-64
2021/07/28 10:48:39;;;;;;;3.88;2.88;;;;;;;;;;5104001;28;20023;-65
2021/07/28 10:51:05;;;;;;;3.72;2.10;;;;;;;;;;5104466;28;20099;-64
2021/07/28 10:53:47;;;;;;;7.82;4.78;;;;;;;;;;5106418;28;20668;-65
2021/07/28 10:56:13;;;;;;;2.40;2.00;;;;;;;;;;5090156;28;20031;-66
2021/07/28 10:58:39;;;;;;;1.85;1.73;;;;;;;;;;5092601;28;20062;-66
2021/07/28 11:01:05;;;;;;;1.80;1.70;;;;;;;;;;5099148;28;20024;-65
2021/07/28 11:03:33;;;;;;;3.13;1.75;;;;;;;;;;5099530;28;20140;-66
2021/07/28 11:06:18;;;;;;;2.17;1.50;;;;;;;;;;5106015;28;20043;-65
2021/07/28 11:08:45;;;;;;;2.17;1.60;;;;;;;;;;5100880;28;20042;-65
2021/07/28 11:11:19;;;;;;;1.70;1.60;;;;;;;;;;5101996;28;20024;-66
2021/07/28 11:13:45;;;;;;;1.63;1.53;;;;;;;;;;5096509;28;20028;-66
2021/07/28 11:16:11;;;;;;;1.42;1.33;;;;;;;;;;5098649;28;20347;-66
2021/07/28 11:18:38;;;;;;;1.50;1.40;;;;;;;;;;5094243;28;20036;-65
2021/07/28 11:21:08;;;;;;;1.63;1.27;;;;;;;;;;5103926;28;20028;-65
2021/07/28 11:23:34;;;;;;;1.48;1.30;;;;;;;;;;5102087;28;20509;-66
2021/07/28 11:26:01;;;;;;;2.42;1.25;;;;;;;;;;5107786;28;20053;-66
2021/07/28 11:28:27;;;;;;;1.83;1.52;;;;;;;;;;5092170;28;20036;-66
2021/07/28 11:30:57;;;;;;;1.60;1.50;;;;;;;;;;5102765;28;20039;-65
2021/07/28 11:33:24;;;;;;;2.08;1.98;;;;;;;;;;5107062;28;20039;-66
2021/07/28 11:35:51;;;;;;;2.13;1.50;;;;;;;;;;5104696;28;20024;-65
2021/07/28 11:38:25;;;;;;;1.92;1.58;;;;;;;;;;5110481;28;20507;-66
2021/07/28 11:40:54;;;;;;;1.80;1.38;;;;;;;;;;5109349;28;20027;-65
2021/07/28 11:43:21;;;;;;;2.08;1.63;;;;;;;;;;5105012;28;20031;-65
2021/07/28 11:45:48;;;;;;;2.13;1.92;;;;;;;;;;5099118;28;20099;-66
2021/07/28 11:48:27;;;;;;;2.28;1.90;;;;;;;;;;5103961;28;20078;-65
2021/07/28 11:50:53;;;;;;;3.72;1.60;;;;;;;;;;5095546;28;20032;-66
2021/07/28 11:53:25;;;;;;;1.90;1.70;;;;;;;;;;5094518;28;20046;-65
2021/07/28 11:55:55;;;;;;;1.58;1.48;;;;;;;;;;5105645;28;20069;-66
2021/07/28 11:58:21;;;;;;;2.97;1.60;;;;;;;;;;5089377;28;20028;-66
2021/07/28 12:00:49;;;;;;;1.70;1.50;;;;;;;;;;5108814;28;20481;-69
2021/07/28 12:03:23;;;;;;;1.60;1.50;;;;;;;;;;5105028;28;20440;-66
2021/07/28 12:06:03;;;;;;;1.55;1.45;;;;;;;;;;5106160;28;20061;-65
2021/07/28 12:08:30;;;;;;;2.25;1.60;;;;;;;;;;5109825;28;20027;-65
2021/07/28 12:11:06;;;;;;;2.90;1.88;;;;;;;;;;5110016;28;20030;-66
2021/07/28 12:13:45;;;;;;;1.73;1.60;;;;;;;;;;5109158;28;20020;-65
2021/07/28 12:16:11;;;;;;;1.65;1.50;;;;;;;;;;5109783;28;20304;-66
2021/07/28 12:18:42;;;;;;;2.88;1.50;;;;;;;;;;5109926;28;20027;-65
2021/07/28 12:21:08;;;;;;;2.33;1.65;;;;;;;;;;5110316;28;20069;-66
2021/07/28 12:23:34;;;;;;;3.00;1.50;;;;;;;;;;5093790;28;20555;-65
2021/07/28 12:26:00;;;;;;;2.15;1.58;;;;;;;;;;5096609;28;20036;-66
2021/07/28 12:28:45;;;;;;;2.88;1.50;;;;;;;;;;5110101;28;20024;-66
2021/07/28 12:31:24;;;;;;;1.83;1.60;;;;;;;;;;5109207;28;20024;-65
2021/07/28 12:33:50;;;;;;;1.75;1.65;;;;;;;;;;5107988;28;20482;-65
2021/07/28 12:36:25;;;;;;;1.63;1.52;;;;;;;;;;5099160;28;20032;-66
2021/07/28 12:38:52;;;;;;;3.35;1.65;;;;;;;;;;5103530;28;20031;-67
2021/07/28 12:41:18;;;;;;;2.55;1.67;;;;;;;;;;5108620;28;20027;-67
2021/07/28 12:43:44;;;;;;;1.55;1.45;;;;;;;;;;5107961;28;20493;-67
2021/07/28 12:46:10;;;;;;;2.47;1.92;;;;;;;;;;5093574;28;20478;-67
2021/07/28 12:48:38;;;;;;;2.47;1.70;;;;;;;;;;5109373;28;20599;-67
2021/07/28 12:51:05;;;;;;;1.80;1.70;;;;;;;;;;5109324;28;20752;-68
2021/07/28 12:53:31;;;;;;;1.90;1.80;;;;;;;;;;5108220;28;20263;-68
2021/07/28 12:55:58;;;;;;;1.98;1.70;;;;;;;;;;5108017;28;20422;-66
2021/07/28 12:58:24;;;;;;;1.77;1.60;;;;;;;;;;5103600;28;20443;-67
2021/07/28 13:00:51;;;;;;;1.80;1.70;;;;;;;;;;5105900;28;20023;-69
2021/07/28 13:03:18;;;;;;;2.67;2.47;;;;;;;;;;5098140;28;20394;-67
2021/07/28 13:05:47;;;;;;;1.55;1.40;;;;;;;;;;5109034;28;20059;-66
2021/07/28 13:08:14;;;;;;;1.80;1.70;;;;;;;;;;5108778;28;20069;-66
2021/07/28 13:10:41;;;;;;;1.75;1.60;;;;;;;;;;5109436;28;20454;-66
2021/07/28 13:13:07;;;;;;;4.07;2.63;;;;;;;;;;5109246;28;20107;-65
2021/07/28 13:15:34;;;;;;;2.05;1.70;;;;;;;;;;5105355;28;20028;-67
2021/07/28 13:18:03;;;;;;;2.40;1.60;;;;;;;;;;5101821;28;20075;-68
2021/07/28 13:20:30;;;;;;;1.75;1.40;;;;;;;;;;5107561;28;20039;-67
2021/07/28 13:22:56;;;;;;;1.17;1.17;;;;;;;;;;5108790;28;20677;-68
2021/07/28 13:25:22;;;;;;;3.40;1.73;;;;;;;;;;5107941;28;20015;-66
2021/07/28 13:27:48;;;;;;;1.35;1.25;;;;;;;;;;5109748;28;20341;-66
2021/07/28 13:30:14;;;;;;;1.40;1.30;;;;;;;;;;5104953;28;20070;-66
2021/07/28 13:32:41;;;;;;;2.00;1.88;;;;;;;;;;5088857;28;20118;-67
2021/07/28 13:35:09;;;;;;;4.55;2.10;;;;;;;;;;5103550;28;20189;-66
2021/07/28 13:37:36;;;;;;;2.28;1.60;;;;;;;;;;5091943;28;20069;-67
2021/07/28 13:40:08;;;;;;;5.18;1.77;;;;;;;;;;5088366;28;20055;-67
2021/07/28 13:42:34;;;;;;;1.95;1.55;;;;;;;;;;5105172;28;20034;-67
2021/07/28 13:45:00;;;;;;;2.35;1.60;;;;;;;;;;5107281;28;20402;-66
2021/07/28 13:47:26;;;;;;;1.60;1.50;;;;;;;;;;5102209;28;20023;-67
2021/07/28 13:49:54;;;;;;;1.33;1.23;;;;;;;;;;5092238;28;20024;-65
2021/07/28 13:52:20;;;;;;;3.45;1.63;;;;;;;;;;5092251;28;20039;-66
2021/07/28 13:54:46;;;;;;;1.70;1.60;;;;;;;;;;5104462;28;20062;-66
2021/07/28 13:57:16;;;;;;;1.70;1.60;;;;;;;;;;5096920;28;20024;-67
2021/07/28 13:59:43;;;;;;;1.55;1.45;;;;;;;;;;5092093;28;20162;-66
2021/07/28 14:02:10;;;;;;;1.52;1.42;;;;;;;;;;5091780;28;20035;-67
2021/07/28 14:04:36;;;;;;;1.50;1.40;;;;;;;;;;5105518;28;20012;-67
2021/07/28 14:07:02;;;;;;;1.83;1.33;;;;;;;;;;5091453;28;20028;-67
2021/07/28 14:09:29;;;;;;;2.13;1.40;;;;;;;;;;5091376;28;20129;-67
2021/07/28 14:11:55;;;;;;;2.65;1.58;;;;;;;;;;5111854;28;20032;-67
2021/07/28 14:14:21;;;;;;;1.52;1.42;;;;;;;;;;5109488;28;20068;-66
2021/07/28 14:16:47;;;;;;;1.92;1.63;;;;;;;;;;5097958;28;20031;-67
2021/07/28 14:19:17;;;;;;;1.50;1.40;;;;;;;;;;5111650;28;20512;-67
2021/07/28 14:21:44;;;;;;;2.00;1.80;;;;;;;;;;5111720;28;20039;-67
2021/07/28 14:24:10;;;;;;;2.83;1.80;;;;;;;;;;5105739;28;20045;-68
2021/07/28 14:26:36;;;;;;;1.88;1.60;;;;;;;;;;5106463;28;20027;-67
2021/07/28 14:29:02;;;;;;;1.60;1.50;;;;;;;;;;5111674;28;20031;-68
2021/07/28 14:31:29;;;;;;;1.77;1.60;;;;;;;;;;5104125;28;20406;-67
2021/07/28 14:33:55;;;;;;;1.80;1.70;;;;;;;;;;5094166;28;20070;-68
2021/07/28 14:36:21;;;;;;;2.25;1.40;;;;;;;;;;5093161;28;20135;-68
2021/07/28 14:38:47;;;;;;;2.72;1.45;;;;;;;;;;5110980;28;20032;-67
2021/07/28 14:41:13;;;;;;;1.90;1.75;;;;;;;;;;5111172;28;20023;-68
2021/07/28 14:43:39;;;;;;;2.10;1.60;;;;;;;;;;5107463;28;20036;-68
2021/07/28 14:46:05;;;;;;;2.80;1.60;;;;;;;;;;5097288;28;20089;-67
2021/07/28 14:48:31;;;;;;;2.78;1.35;;;;;;;;;;5109552;28;20023;-66